Huvudsida
METAR-TAF:

METAR-TAF

Flygplatser :

Tinian International Airport

Tinian, Marianerna, USA

latitud: 14-59N, longitud: 145-37E, höjd: 82 m

Aktuellt väderrapport

Denna rapport gjordes för 48 minuter sedan, klockan 23:50 UTC
Vind 12 kt från ost
Temperatur
Tryck 1011 hPa
Sikt: 11.3 km
Spridda moln på en höjd av 1600 ft
Spridda moln på en höjd av 12000 ft

METAR: PGWT 142350Z 08012KT 7SM SCT016 SCT120 M/M A2986

Tid: 10:38 (00:38 UTC)

Väderprognos

Denna rapport gjordes för 1 timme och 17 minuter sedan, klockan 23:21 UTC
Prognos gäller från 15 kl. 00 UTC till 15 kl. 24 UTC
Vind 13 kt från ost
Sikt: 10 km
Spridda moln på en höjd av 1600 ft
Spridda moln på en höjd av 12000 ft

TAF: PGWT 142321Z 1500/1524 08013KT P6SM SCT016 SCT120

Aktuella väderrapporter och prognoser från 4000 flygplatser (METAR- och TAF-rapporter).

De tillgängliga stationerna syns som gula och röda prickar på kartan.

För musen över prickarna för att se namnen på stationerna.

Klicka sedan för att få väderrapporter och prognoser.

För att ändra kartan: Klicka på de gröna knapparna med ett svart kors på för att zooma in; den gröna knappen med ett streck på för att zooma ut; eller på de gröna pilarna för angränsande kartor.


METAR-TAF: